createdAt,value
2023-08-03T00:00:15.047Z,39.3
2023-08-03T00:01:16.993Z,39.3
2023-08-03T00:02:18.948Z,39.2
2023-08-03T00:03:21.278Z,39.2
2023-08-03T00:04:29.416Z,39.3
2023-08-03T00:05:31.417Z,39.1
2023-08-03T00:06:33.382Z,39.1
2023-08-03T00:07:35.336Z,39.1
2023-08-03T00:08:37.053Z,39.2
2023-08-03T00:09:38.985Z,39.2
2023-08-03T00:10:40.791Z,39.1
2023-08-03T00:11:43.076Z,39
2023-08-03T00:12:45.768Z,39
2023-08-03T00:13:47.462Z,39
2023-08-03T00:14:49.173Z,39.1
2023-08-03T00:15:51.105Z,39.1
2023-08-03T00:16:53.152Z,39.2
2023-08-03T00:17:55.104Z,39.4
2023-08-03T00:18:57.021Z,39.3
2023-08-03T00:19:58.801Z,39.3
2023-08-03T00:21:00.530Z,39.2
2023-08-03T00:22:02.325Z,39.2
2023-08-03T00:23:04.124Z,39.1
2023-08-03T00:24:05.848Z,39.2
2023-08-03T00:25:07.685Z,39.4
2023-08-03T00:26:09.465Z,39.3
2023-08-03T00:27:11.230Z,39.1
2023-08-03T00:28:12.967Z,39
2023-08-03T00:29:14.736Z,39.1
2023-08-03T00:30:19.350Z,39
2023-08-03T00:31:21.196Z,39
2023-08-03T00:32:23.128Z,39
2023-08-03T00:33:24.899Z,39.2
2023-08-03T00:34:27.101Z,39.5
2023-08-03T00:35:28.921Z,39.5
2023-08-03T00:36:30.589Z,39.3
2023-08-03T00:37:32.319Z,39.2
2023-08-03T00:38:34.036Z,39.2
2023-08-03T00:39:35.982Z,39.2
2023-08-03T00:40:37.839Z,39.4
2023-08-03T00:41:39.682Z,39.5
2023-08-03T00:42:41.478Z,39.4
2023-08-03T00:43:43.188Z,39.3
2023-08-03T00:44:44.926Z,39.2
2023-08-03T00:45:49.646Z,39.2
2023-08-03T00:46:51.544Z,39.2
2023-08-03T00:47:53.671Z,39.4
2023-08-03T00:48:55.804Z,39.6
2023-08-03T00:49:57.591Z,39.8
2023-08-03T00:50:59.374Z,39.7
2023-08-03T00:52:01.078Z,39.5
2023-08-03T00:53:02.809Z,39.4
2023-08-03T00:54:04.539Z,39.4
2023-08-03T00:55:06.312Z,39.4
2023-08-03T00:56:08.252Z,39.4
2023-08-03T00:57:09.950Z,39.6
2023-08-03T00:58:11.632Z,39.6
2023-08-03T00:59:13.388Z,39.4
2023-08-03T01:00:15.076Z,39.4
2023-08-03T01:01:17.015Z,39.4
2023-08-03T01:02:19.092Z,39.4
2023-08-03T01:03:21.087Z,39.4
2023-08-03T01:04:23.020Z,39.5
2023-08-03T01:05:24.727Z,39.9
2023-08-03T01:06:26.777Z,39.9
2023-08-03T01:07:28.898Z,39.6
2023-08-03T01:08:30.747Z,39.6
2023-08-03T01:09:32.497Z,39.5
2023-08-03T01:10:34.365Z,39.4
2023-08-03T01:11:36.395Z,39.5
2023-08-03T01:12:38.153Z,39.6
2023-08-03T01:13:39.914Z,39.7
2023-08-03T01:14:41.765Z,39.7
2023-08-03T01:15:43.506Z,39.6
2023-08-03T01:16:45.310Z,39.5
2023-08-03T01:17:47.185Z,39.5
2023-08-03T01:18:51.762Z,39.6
2023-08-03T01:19:53.576Z,39.8
2023-08-03T01:20:55.299Z,39.9
2023-08-03T01:21:57.095Z,39.9
2023-08-03T01:22:58.824Z,39.8
2023-08-03T01:24:00.567Z,39.6
2023-08-03T01:25:02.289Z,39.5
2023-08-03T01:26:04.040Z,39.5
2023-08-03T01:27:05.783Z,39.5
2023-08-03T01:28:07.497Z,39.6
2023-08-03T01:29:09.221Z,39.8
2023-08-03T01:30:11.022Z,39.8
2023-08-03T01:31:12.951Z,39.9
2023-08-03T01:32:14.879Z,39.7
2023-08-03T01:33:17.008Z,39.6
2023-08-03T01:34:19.461Z,39.6
2023-08-03T01:35:23.912Z,39.6
2023-08-03T01:36:25.611Z,39.8
2023-08-03T01:37:27.335Z,40
2023-08-03T01:38:29.062Z,40
2023-08-03T01:39:30.918Z,39.9
2023-08-03T01:40:32.616Z,39.8
2023-08-03T01:41:34.417Z,39.7
2023-08-03T01:42:36.279Z,39.6
2023-08-03T01:43:37.989Z,39.6
2023-08-03T01:44:39.735Z,39.6
2023-08-03T01:45:41.452Z,39.6
2023-08-03T01:46:43.399Z,39.8
2023-08-03T01:47:45.359Z,39.8
2023-08-03T01:48:47.369Z,39.6
2023-08-03T01:49:49.134Z,39.5
2023-08-03T01:50:50.896Z,39.5
2023-08-03T01:51:52.622Z,39.6
2023-08-03T01:52:54.545Z,39.6
2023-08-03T01:53:56.273Z,39.8
2023-08-03T01:54:58.032Z,40.1
2023-08-03T01:55:59.747Z,40.2
2023-08-03T01:57:01.558Z,39.9
2023-08-03T01:58:03.308Z,39.8
2023-08-03T01:59:05.047Z,39.8
2023-08-03T02:00:06.888Z,39.7
2023-08-03T02:01:08.641Z,39.7
2023-08-03T02:02:10.461Z,39.7
2023-08-03T02:03:12.415Z,39.8
2023-08-03T02:04:14.436Z,39.9
2023-08-03T02:05:16.299Z,40
2023-08-03T02:06:18.145Z,39.9
2023-08-03T02:07:19.912Z,39.8
2023-08-03T02:08:24.710Z,39.8
2023-08-03T02:09:26.542Z,39.7
2023-08-03T02:10:28.354Z,39.8
2023-08-03T02:11:30.173Z,40
2023-08-03T02:12:31.878Z,40
2023-08-03T02:13:33.555Z,40
2023-08-03T02:14:35.388Z,40
2023-08-03T02:15:37.088Z,39.9
2023-08-03T02:16:38.970Z,39.9
2023-08-03T02:17:40.846Z,39.8
2023-08-03T02:18:42.961Z,39.9
2023-08-03T02:19:44.695Z,39.8
2023-08-03T02:20:46.468Z,39.9
2023-08-03T02:21:48.165Z,39.9
2023-08-03T02:22:49.885Z,39.8
2023-08-03T02:23:51.837Z,39.7
2023-08-03T02:24:53.582Z,39.6
2023-08-03T02:25:55.379Z,39.7
2023-08-03T02:26:57.276Z,39.7
2023-08-03T02:27:58.982Z,39.8
2023-08-03T02:29:00.720Z,40.1
2023-08-03T02:30:02.535Z,40.3
2023-08-03T02:31:04.214Z,40.3
2023-08-03T02:32:06.028Z,40
2023-08-03T02:33:07.820Z,39.9
2023-08-03T02:34:09.553Z,40
2023-08-03T02:35:11.222Z,39.9
2023-08-03T02:36:13.016Z,39.9
2023-08-03T02:37:14.689Z,39.9
2023-08-03T02:38:16.374Z,40.1
2023-08-03T02:39:18.071Z,40
2023-08-03T02:40:19.758Z,39.9
2023-08-03T02:41:24.079Z,39.9
2023-08-03T02:42:25.845Z,39.8
2023-08-03T02:43:27.564Z,39.8
2023-08-03T02:44:29.391Z,39.9
2023-08-03T02:45:31.084Z,40
2023-08-03T02:46:32.950Z,40.4
2023-08-03T02:47:34.816Z,40.5
2023-08-03T02:48:36.638Z,40.4
2023-08-03T02:49:38.317Z,40.1
2023-08-03T02:50:43.148Z,40
2023-08-03T02:51:45.601Z,39.9
2023-08-03T02:52:48.225Z,39.9
2023-08-03T02:53:50.059Z,39.9
2023-08-03T02:54:51.820Z,40.1
2023-08-03T02:55:53.843Z,40.2
2023-08-03T02:56:55.549Z,40.1
2023-08-03T02:57:57.320Z,39.9
2023-08-03T02:58:59.194Z,39.8
2023-08-03T03:00:01.125Z,39.8
2023-08-03T03:01:03.004Z,39.9
2023-08-03T03:02:05.010Z,39.8
2023-08-03T03:03:06.872Z,39.9
2023-08-03T03:04:09.053Z,40.3
2023-08-03T03:05:10.848Z,40.5
2023-08-03T03:06:12.712Z,40.3
2023-08-03T03:07:14.747Z,40.1
2023-08-03T03:08:16.463Z,40
2023-08-03T03:09:18.171Z,39.9
2023-08-03T03:10:19.954Z,40
2023-08-03T03:11:21.695Z,40
2023-08-03T03:12:23.419Z,40.2
2023-08-03T03:13:25.143Z,40.3
2023-08-03T03:14:26.891Z,40.2
2023-08-03T03:15:28.665Z,40.1
2023-08-03T03:16:30.538Z,40
2023-08-03T03:17:34.921Z,40
2023-08-03T03:18:37.057Z,40
2023-08-03T03:19:38.752Z,40
2023-08-03T03:20:40.595Z,40
2023-08-03T03:21:43.181Z,40.1
2023-08-03T03:22:45.918Z,40.3
2023-08-03T03:23:47.612Z,40.4
2023-08-03T03:24:49.285Z,40.2
2023-08-03T03:25:50.994Z,40.1
2023-08-03T03:26:53.187Z,40
2023-08-03T03:27:57.990Z,40
2023-08-03T03:28:59.702Z,40
2023-08-03T03:30:01.413Z,40.2
2023-08-03T03:31:03.252Z,40.3
2023-08-03T03:32:05.049Z,40.1
2023-08-03T03:33:09.846Z,40
2023-08-03T03:34:11.870Z,39.9
2023-08-03T03:35:13.566Z,40
2023-08-03T03:36:15.359Z,40
2023-08-03T03:37:17.080Z,39.9
2023-08-03T03:38:18.874Z,39.9
2023-08-03T03:39:20.580Z,40.5
2023-08-03T03:40:22.332Z,40.1
2023-08-03T03:41:24.117Z,40.2
2023-08-03T03:42:25.836Z,40.2
2023-08-03T03:43:27.563Z,40.8
2023-08-03T03:44:29.306Z,41.3
2023-08-03T03:45:31.170Z,41.3
2023-08-03T03:46:33.281Z,42.3
2023-08-03T03:47:35.230Z,43.3
2023-08-03T03:48:37.496Z,43.8
2023-08-03T03:49:39.641Z,44.7
2023-08-03T03:50:41.928Z,45.1
2023-08-03T03:51:47.149Z,45.4
2023-08-03T03:52:49.112Z,45.5
2023-08-03T03:53:50.913Z,45.7
2023-08-03T03:54:52.648Z,46
2023-08-03T03:55:54.339Z,46
2023-08-03T03:56:56.097Z,46.3
2023-08-03T03:57:58.022Z,46.3
2023-08-03T03:58:59.767Z,46.3
2023-08-03T04:00:04.254Z,46.3
2023-08-03T04:01:06.172Z,46.3
2023-08-03T04:02:08.172Z,46.5
2023-08-03T04:03:10.182Z,46.5
2023-08-03T04:04:12.138Z,46.7
2023-08-03T04:05:13.876Z,46.9
2023-08-03T04:06:15.642Z,46.8
2023-08-03T04:07:20.281Z,47
2023-08-03T04:08:22.114Z,47
2023-08-03T04:09:23.851Z,47.1
2023-08-03T04:10:25.536Z,47
2023-08-03T04:11:27.239Z,47.1
2023-08-03T04:12:28.998Z,47
2023-08-03T04:13:30.790Z,46.8
2023-08-03T04:14:32.565Z,46.8
2023-08-03T04:15:34.374Z,47.1
2023-08-03T04:16:36.200Z,46.8
2023-08-03T04:17:38.206Z,47
2023-08-03T04:18:39.969Z,47
2023-08-03T04:19:41.695Z,47.3
2023-08-03T04:20:43.430Z,47.3
2023-08-03T04:21:45.707Z,47.2
2023-08-03T04:22:48.775Z,47.3
2023-08-03T04:23:50.524Z,47.3
2023-08-03T04:24:52.255Z,47.6
2023-08-03T04:25:53.962Z,47.4
2023-08-03T04:26:55.679Z,47.5
2023-08-03T04:27:57.561Z,47.6
2023-08-03T04:28:59.327Z,47.5
2023-08-03T04:30:01.065Z,47.1
2023-08-03T04:31:03.021Z,47.3
2023-08-03T04:32:05.171Z,47
2023-08-03T04:33:06.931Z,46.7
2023-08-03T04:34:08.676Z,46.6
2023-08-03T04:35:10.423Z,46.4
2023-08-03T04:36:12.113Z,46.4
2023-08-03T04:37:13.799Z,46
2023-08-03T04:38:15.570Z,45.5
2023-08-03T04:39:17.320Z,45.4
2023-08-03T04:40:19.204Z,45.4
2023-08-03T04:41:20.898Z,45.4
2023-08-03T04:42:22.587Z,45.4
2023-08-03T04:43:24.388Z,45.3
2023-08-03T04:44:26.076Z,45
2023-08-03T04:45:27.806Z,44.8
2023-08-03T04:46:29.555Z,44.6
2023-08-03T04:47:34.640Z,44.4
2023-08-03T04:48:36.544Z,44.8
2023-08-03T04:49:38.340Z,44.5
2023-08-03T04:50:40.053Z,44.8
2023-08-03T04:51:42.242Z,44.3
2023-08-03T04:52:45.173Z,44.2
2023-08-03T04:53:46.938Z,44.3
2023-08-03T04:54:48.801Z,44.1
2023-08-03T04:55:50.552Z,43.8
2023-08-03T04:56:53.991Z,43.7
2023-08-03T04:57:55.832Z,43.8
2023-08-03T04:58:57.594Z,43.9
2023-08-03T04:59:59.370Z,43.8
2023-08-03T05:01:01.434Z,43.9
2023-08-03T05:02:03.709Z,44
2023-08-03T05:03:06.142Z,43.9
2023-08-03T05:04:08.432Z,43.6
2023-08-03T05:05:10.321Z,43.4
2023-08-03T05:06:12.302Z,43.5
2023-08-03T05:07:14.308Z,43.3
2023-08-03T05:08:16.219Z,43.2
2023-08-03T05:09:18.070Z,43.3
2023-08-03T05:10:19.846Z,43.2
2023-08-03T05:11:21.633Z,43
2023-08-03T05:12:23.324Z,43
2023-08-03T05:13:25.075Z,43
2023-08-03T05:14:26.810Z,43
2023-08-03T05:15:28.685Z,42.7
2023-08-03T05:16:30.509Z,43.2
2023-08-03T05:17:32.676Z,43
2023-08-03T05:18:34.664Z,42.9
2023-08-03T05:19:36.530Z,41.7
2023-08-03T05:20:38.320Z,41.9
2023-08-03T05:21:40.047Z,41.6
2023-08-03T05:22:41.927Z,41.5
2023-08-03T05:23:43.647Z,41.4
2023-08-03T05:24:45.432Z,41.2
2023-08-03T05:25:47.138Z,41.1
2023-08-03T05:26:48.864Z,41.4
2023-08-03T05:27:50.610Z,41.1
2023-08-03T05:28:52.328Z,41.6
2023-08-03T05:29:54.126Z,41.6
2023-08-03T05:30:55.994Z,41.9
2023-08-03T05:31:57.912Z,41.5
2023-08-03T05:32:59.684Z,41.3
2023-08-03T05:34:01.607Z,41.5
2023-08-03T05:35:03.331Z,41.9
2023-08-03T05:36:05.086Z,41.3
2023-08-03T05:37:06.784Z,41.4
2023-08-03T05:38:08.537Z,41.3
2023-08-03T05:39:10.275Z,41
2023-08-03T05:40:12.022Z,41.5
2023-08-03T05:41:13.737Z,41.8
2023-08-03T05:42:15.496Z,41.6
2023-08-03T05:43:17.252Z,41.1
2023-08-03T05:44:18.963Z,41.7
2023-08-03T05:45:20.719Z,41.7
2023-08-03T05:46:25.393Z,41.7
2023-08-03T05:47:30.143Z,41.7
2023-08-03T05:48:32.145Z,41.7
2023-08-03T05:49:33.928Z,41.6
2023-08-03T05:50:36.445Z,41.6
2023-08-03T05:51:38.226Z,41.4
2023-08-03T05:52:39.929Z,41.5
2023-08-03T05:53:41.644Z,41.9
2023-08-03T05:54:47.357Z,41.7
2023-08-03T05:56:12.068Z,42.1
2023-08-03T05:57:14.584Z,41.6
2023-08-03T05:58:16.525Z,41.4
2023-08-03T05:59:18.292Z,41.6
2023-08-03T06:00:19.994Z,41.2
2023-08-03T06:01:21.830Z,41
2023-08-03T06:02:23.744Z,41.1
2023-08-03T06:03:25.430Z,41.2
2023-08-03T06:04:30.262Z,40.9
2023-08-03T06:05:32.075Z,40.9
2023-08-03T06:06:34.152Z,40.7
2023-08-03T06:07:36.352Z,40.7
2023-08-03T06:08:38.115Z,40.7
2023-08-03T06:09:39.833Z,40.7
2023-08-03T06:10:41.598Z,40.8
2023-08-03T06:11:43.646Z,40.5
2023-08-03T06:12:45.800Z,40.9
2023-08-03T06:13:47.524Z,40.8
2023-08-03T06:14:49.311Z,40.8
2023-08-03T06:15:51.024Z,40.6
2023-08-03T06:16:52.787Z,40.5
2023-08-03T06:17:54.583Z,40.5
2023-08-03T06:18:56.600Z,40.5
2023-08-03T06:19:58.371Z,40.6
2023-08-03T06:21:00.417Z,40.4
2023-08-03T06:22:02.200Z,40.4
2023-08-03T06:23:04.015Z,40.4
2023-08-03T06:24:05.700Z,40.4
2023-08-03T06:25:07.588Z,40.3
2023-08-03T06:26:09.753Z,40.3
2023-08-03T06:27:11.516Z,40.2
2023-08-03T06:28:13.324Z,40.4
2023-08-03T06:29:15.061Z,40.3
2023-08-03T06:30:16.870Z,40.4
2023-08-03T06:31:18.665Z,40.4
2023-08-03T06:32:20.633Z,40.4
2023-08-03T06:33:22.329Z,40.6
2023-08-03T06:34:24.025Z,40.6
2023-08-03T06:35:25.754Z,40.5
2023-08-03T06:36:27.685Z,40.5
2023-08-03T06:37:29.412Z,40.4
2023-08-03T06:38:31.155Z,40.3
2023-08-03T06:39:33.044Z,40.4
2023-08-03T06:40:34.746Z,40.5
2023-08-03T06:41:36.458Z,40.7
2023-08-03T06:42:38.176Z,40.5
2023-08-03T06:43:39.989Z,40.5
2023-08-03T06:44:41.806Z,40.5
2023-08-03T06:45:43.705Z,40.6
2023-08-03T06:46:45.780Z,40.8
2023-08-03T06:47:47.755Z,40.9
2023-08-03T06:48:49.683Z,40.8
2023-08-03T06:49:51.441Z,40.8
2023-08-03T06:50:53.193Z,40.8
2023-08-03T06:51:55.057Z,40.8
2023-08-03T06:52:59.521Z,40.9
2023-08-03T06:54:01.277Z,41
2023-08-03T06:55:02.987Z,41
2023-08-03T06:56:04.791Z,41
2023-08-03T06:57:06.624Z,41.1
2023-08-03T06:58:08.361Z,41.2
2023-08-03T06:59:10.876Z,41.2
2023-08-03T07:00:12.690Z,41.2
2023-08-03T07:01:14.532Z,41.2
2023-08-03T07:02:16.776Z,41.1
2023-08-03T07:03:19.018Z,41.1
2023-08-03T07:04:21.503Z,41.1
2023-08-03T07:05:23.257Z,41.4
2023-08-03T07:06:25.317Z,41.4
2023-08-03T07:07:27.124Z,41.4
2023-08-03T07:08:28.942Z,41.4
2023-08-03T07:09:30.712Z,41.4
2023-08-03T07:10:32.428Z,41.5
2023-08-03T07:11:34.182Z,41.4
2023-08-03T07:12:35.893Z,41.5
2023-08-03T07:13:37.953Z,41.6
2023-08-03T07:14:39.693Z,41.5
2023-08-03T07:15:41.776Z,41.6
2023-08-03T07:16:43.963Z,41.7
2023-08-03T07:17:45.774Z,41.7
2023-08-03T07:18:47.877Z,41.7
2023-08-03T07:19:49.746Z,41.6
2023-08-03T07:20:51.486Z,41.6
2023-08-03T07:21:53.274Z,41.6
2023-08-03T07:22:55.028Z,41.6
2023-08-03T07:23:56.862Z,41.5
2023-08-03T07:24:58.576Z,41.5
2023-08-03T07:26:02.976Z,41.6
2023-08-03T07:27:04.803Z,41.6
2023-08-03T07:28:06.728Z,41.5
2023-08-03T07:29:08.435Z,41.6
2023-08-03T07:30:10.233Z,41.7
2023-08-03T07:31:12.020Z,41.6
2023-08-03T07:32:14.014Z,41.5
2023-08-03T07:33:15.959Z,41.5
2023-08-03T07:34:17.816Z,41.5
2023-08-03T07:35:19.766Z,41.4
2023-08-03T07:36:21.523Z,41.4
2023-08-03T07:37:23.248Z,41.5
2023-08-03T07:38:25.196Z,41.6
2023-08-03T07:39:30.036Z,41.6
2023-08-03T07:40:31.892Z,41.5
2023-08-03T07:41:35.818Z,41.6
2023-08-03T07:42:37.527Z,41.6
2023-08-03T07:43:39.246Z,41.6
2023-08-03T07:45:52.162Z,41.6
2023-08-03T07:46:54.213Z,41.7
2023-08-03T07:47:56.113Z,41.7
2023-08-03T07:48:58.175Z,41.6
2023-08-03T07:50:00.009Z,41.6
2023-08-03T07:51:01.973Z,41.7
2023-08-03T07:52:03.940Z,41.8
2023-08-03T07:53:06.171Z,41.9
2023-08-03T07:54:07.912Z,41.9
2023-08-03T07:55:10.811Z,42
2023-08-03T07:56:12.634Z,41.9
2023-08-03T07:57:14.434Z,41.6
2023-08-03T07:58:16.149Z,41.7
2023-08-03T07:59:17.869Z,41.7
2023-08-03T08:00:19.559Z,41.7
2023-08-03T08:01:21.528Z,41.5
2023-08-03T08:02:23.957Z,41.5
2023-08-03T08:03:25.890Z,41.4
2023-08-03T08:04:27.975Z,41.4
2023-08-03T08:05:32.473Z,41.5
2023-08-03T08:06:34.229Z,41.6
2023-08-03T08:07:37.185Z,41.8
2023-08-03T08:08:38.915Z,42.2
2023-08-03T08:09:40.665Z,42
2023-08-03T08:10:42.671Z,41.9
2023-08-03T08:11:45.357Z,41.8
2023-08-03T08:12:50.079Z,41.8
2023-08-03T08:13:52.005Z,42
2023-08-03T08:14:53.785Z,41.7
2023-08-03T08:15:56.029Z,41.5
2023-08-03T08:17:15.355Z,41.6
2023-08-03T08:18:17.936Z,41.9
2023-08-03T08:19:20.349Z,41.8
2023-08-03T08:20:24.284Z,41.7
2023-08-03T08:21:26.445Z,41.7
2023-08-03T08:22:29.172Z,41.9
2023-08-03T08:23:31.397Z,41.7
2023-08-03T08:24:33.367Z,41.6
2023-08-03T08:25:35.985Z,41.7
2023-08-03T08:26:41.675Z,41.9
2023-08-03T08:27:44.369Z,42
2023-08-03T08:29:04.952Z,41.9
2023-08-03T08:30:12.159Z,41.8
2023-08-03T08:31:14.201Z,41.6
2023-08-03T08:32:16.281Z,41.8
2023-08-03T08:33:18.700Z,41.9
2023-08-03T08:34:20.784Z,42
2023-08-03T08:35:22.569Z,41.7
2023-08-03T08:36:24.328Z,41.8
2023-08-03T08:37:26.257Z,41.9
2023-08-03T08:38:27.990Z,42
2023-08-03T08:39:32.740Z,41.9
2023-08-03T08:40:34.646Z,41.9
2023-08-03T08:41:36.364Z,42
2023-08-03T08:42:38.181Z,42
2023-08-03T08:43:40.377Z,42.2
2023-08-03T08:44:42.114Z,42.1
2023-08-03T08:45:43.902Z,42.4
2023-08-03T08:46:46.401Z,42.4
2023-08-03T08:47:49.100Z,42.5
2023-08-03T08:48:52.305Z,42.4
2023-08-03T08:50:23.511Z,42.3
2023-08-03T08:57:12.317Z,42.8
2023-08-03T08:58:19.566Z,42.9
2023-08-03T09:00:35.158Z,43
2023-08-03T09:01:37.040Z,42.8
2023-08-03T09:02:39.069Z,42.7
2023-08-03T09:04:55.224Z,42.6
2023-08-03T09:07:11.706Z,42.2
2023-08-03T09:08:13.967Z,42.4
2023-08-03T09:09:15.802Z,42.3
2023-08-03T09:10:17.593Z,42.4
2023-08-03T09:11:19.525Z,42
2023-08-03T09:12:21.904Z,42.4
2023-08-03T09:13:24.021Z,42.3
2023-08-03T09:14:25.923Z,42.4
2023-08-03T09:15:27.920Z,42.3
2023-08-03T09:16:29.853Z,42.4
2023-08-03T09:17:34.845Z,42.5
2023-08-03T09:18:37.034Z,42.5
2023-08-03T09:20:43.829Z,42.9
2023-08-03T09:25:42.011Z,43.7
2023-08-03T09:28:00.162Z,43.5
2023-08-03T09:29:40.480Z,43
2023-08-03T09:30:42.394Z,43
2023-08-03T09:32:57.806Z,42.6
2023-08-03T09:34:00.057Z,42.7
2023-08-03T09:35:02.538Z,42.8
2023-08-03T09:36:04.330Z,43
2023-08-03T09:37:09.662Z,43.2
2023-08-03T09:38:12.261Z,43.4
2023-08-03T09:40:28.217Z,43.6
2023-08-03T09:41:58.582Z,43.5
2023-08-03T09:43:02.994Z,43.6
2023-08-03T09:44:07.850Z,43.6
2023-08-03T09:45:33.664Z,43.8
2023-08-03T09:46:35.651Z,43.7
2023-08-03T09:47:37.845Z,43.5
2023-08-03T09:48:40.253Z,43.4
2023-08-03T09:49:42.084Z,43.3
2023-08-03T09:50:44.289Z,43.3
2023-08-03T09:53:00.672Z,43.3
2023-08-03T09:55:16.436Z,43.4
2023-08-03T09:56:18.283Z,43.4
2023-08-03T09:57:23.474Z,43.2
2023-08-03T09:58:25.383Z,43.5
2023-08-03T09:59:27.271Z,43.4
2023-08-03T10:00:29.882Z,43.3
2023-08-03T10:01:31.888Z,43.1
2023-08-03T10:02:33.744Z,43.2
2023-08-03T10:03:35.694Z,43.3
2023-08-03T10:04:37.983Z,43.3
2023-08-03T10:05:39.736Z,43.3
2023-08-03T10:06:41.553Z,43.3
2023-08-03T10:07:43.587Z,43.2
2023-08-03T10:08:45.367Z,43.2
2023-08-03T10:09:49.396Z,43.3
2023-08-03T10:10:51.463Z,43.4
2023-08-03T10:11:53.250Z,43.4
2023-08-03T10:12:55.108Z,43.4
2023-08-03T10:13:59.634Z,43.4
2023-08-03T10:15:01.414Z,43.5
2023-08-03T10:16:03.496Z,43.6
2023-08-03T10:17:06.352Z,43.5
2023-08-03T10:18:08.511Z,43.4
2023-08-03T10:19:10.616Z,43.3
2023-08-03T10:20:12.455Z,43.4
2023-08-03T10:21:14.385Z,43.5
2023-08-03T10:22:16.218Z,43.5
2023-08-03T10:23:18.036Z,43.5
2023-08-03T10:24:20.324Z,43.4
2023-08-03T10:25:22.275Z,43.6
2023-08-03T10:26:24.218Z,43.6
2023-08-03T10:27:26.722Z,43.5
2023-08-03T10:28:28.838Z,43.4
2023-08-03T10:29:30.642Z,43.5
2023-08-03T10:30:32.697Z,43.7
2023-08-03T10:31:34.843Z,43.8
2023-08-03T10:32:36.743Z,43.9
2023-08-03T10:33:41.272Z,44
2023-08-03T10:34:43.326Z,44.1
2023-08-03T10:35:45.100Z,44.2
2023-08-03T10:36:47.730Z,44.1
2023-08-03T10:37:50.701Z,44.1
2023-08-03T10:38:52.429Z,44
2023-08-03T10:39:54.633Z,44.1
2023-08-03T10:40:57.052Z,44.2
2023-08-03T10:41:58.921Z,44.2
2023-08-03T10:43:00.921Z,44.7
2023-08-03T10:44:03.062Z,44.2
2023-08-03T10:45:04.939Z,44.5
2023-08-03T10:46:07.138Z,44.3
2023-08-03T10:47:09.828Z,44.3
2023-08-03T10:48:12.900Z,44.2
2023-08-03T10:49:15.637Z,44.2
2023-08-03T10:50:17.776Z,44.1
2023-08-03T10:51:19.671Z,44.1
2023-08-03T10:52:21.481Z,44
2023-08-03T10:53:23.565Z,43.9
2023-08-03T10:54:25.316Z,43.8
2023-08-03T10:55:30.332Z,43.9
2023-08-03T10:56:32.461Z,44
2023-08-03T10:57:34.200Z,43.9
2023-08-03T10:58:36.030Z,43.9
2023-08-03T10:59:38.123Z,43.8
2023-08-03T11:00:39.896Z,43.7
2023-08-03T11:01:41.923Z,44
2023-08-03T11:02:44.363Z,43.9
2023-08-03T11:03:46.882Z,43.8
2023-08-03T11:04:49.250Z,43.8
2023-08-03T11:05:51.152Z,43.9
2023-08-03T11:06:53.061Z,43.8
2023-08-03T11:07:54.858Z,43.8
2023-08-03T11:08:56.861Z,43.8
2023-08-03T11:09:58.601Z,43.7
2023-08-03T11:11:03.385Z,43.8
2023-08-03T11:12:05.364Z,43.6
2023-08-03T11:13:07.152Z,43.5
2023-08-03T11:14:09.055Z,43.5
2023-08-03T11:15:10.897Z,43.3
2023-08-03T11:16:12.862Z,43.5
2023-08-03T11:17:14.853Z,43.5
2023-08-03T11:18:17.019Z,43.4
2023-08-03T11:19:21.659Z,43.7
2023-08-03T11:20:23.430Z,43.9
2023-08-03T11:21:25.191Z,44.4
2023-08-03T11:22:27.146Z,44.7
2023-08-03T11:23:29.238Z,45
2023-08-03T11:24:30.953Z,45.3
2023-08-03T11:25:32.837Z,44.9
2023-08-03T11:26:34.686Z,44.9
2023-08-03T11:27:36.456Z,44.9
2023-08-03T11:28:38.324Z,45.1
2023-08-03T11:29:44.032Z,45.1
2023-08-03T11:30:46.052Z,45
2023-08-03T11:31:48.013Z,44.7
2023-08-03T11:32:52.657Z,44.5
2023-08-03T11:33:54.642Z,44.8
2023-08-03T11:34:56.938Z,44.5
2023-08-03T11:35:58.907Z,44.4
2023-08-03T11:37:00.636Z,44.2
2023-08-03T11:38:02.418Z,44.1
2023-08-03T11:39:04.412Z,44
2023-08-03T11:40:06.275Z,44
2023-08-03T11:41:11.967Z,43.9
2023-08-03T11:42:14.233Z,43.8
2023-08-03T11:43:16.060Z,43.9
2023-08-03T11:44:17.915Z,43.8
2023-08-03T11:45:19.664Z,43.8
2023-08-03T11:46:21.394Z,43.7
2023-08-03T11:47:24.367Z,43.8
2023-08-03T11:48:26.501Z,43.7
2023-08-03T11:49:28.478Z,43.6
2023-08-03T11:50:30.258Z,43.6
2023-08-03T11:51:32.150Z,43.5
2023-08-03T11:52:34.039Z,43.5
2023-08-03T11:53:36.040Z,43.5
2023-08-03T11:54:37.962Z,43.5
2023-08-03T11:55:39.885Z,43.5
2023-08-03T11:56:45.901Z,43.5
2023-08-03T11:57:53.661Z,43.4
2023-08-03T11:58:55.549Z,43.2
2023-08-03T11:59:58.330Z,43.2
2023-08-03T12:01:00.181Z,43.3
2023-08-03T12:02:02.477Z,43.2
2023-08-03T12:03:04.905Z,43.1
2023-08-03T12:04:15.270Z,43
2023-08-03T12:05:19.858Z,42.9
2023-08-03T12:07:36.433Z,42.8
2023-08-03T12:08:39.599Z,42.8
2023-08-03T12:09:41.829Z,42.7
2023-08-03T12:10:43.795Z,42.7
2023-08-03T12:12:48.582Z,42.8
2023-08-03T12:13:50.494Z,42.8
2023-08-03T12:14:52.396Z,42.8
2023-08-03T12:15:54.233Z,42.8
2023-08-03T12:16:59.771Z,42.8
2023-08-03T12:18:01.689Z,42.6
2023-08-03T12:19:03.690Z,42.8
2023-08-03T12:20:05.925Z,42.9
2023-08-03T12:21:07.890Z,42.8
2023-08-03T12:22:12.559Z,42.9
2023-08-03T12:23:14.948Z,42.4
2023-08-03T12:24:16.823Z,42.3
2023-08-03T12:25:22.625Z,42.2
2023-08-03T12:26:24.954Z,42
2023-08-03T12:27:26.806Z,43.4
2023-08-03T12:28:28.810Z,43.2
2023-08-03T12:29:30.560Z,43.7
2023-08-03T12:30:32.329Z,44.1
2023-08-03T12:31:34.287Z,44.4
2023-08-03T12:32:36.654Z,44
2023-08-03T12:33:39.227Z,44.6
2023-08-03T12:34:41.498Z,44.5
2023-08-03T12:35:43.291Z,44.7
2023-08-03T12:36:45.898Z,44.6
2023-08-03T12:37:49.267Z,44.7
2023-08-03T12:38:51.057Z,44.3
2023-08-03T12:39:52.979Z,44
2023-08-03T12:40:54.838Z,44
2023-08-03T12:41:56.588Z,44.2
2023-08-03T12:42:58.534Z,44.2
2023-08-03T12:44:00.503Z,44.3
2023-08-03T12:45:02.389Z,44.2
2023-08-03T12:46:04.442Z,44.1
2023-08-03T12:47:09.905Z,44.1
2023-08-03T12:48:18.067Z,44
2023-08-03T12:49:20.607Z,43.8
2023-08-03T12:50:22.538Z,43.6
2023-08-03T12:51:24.559Z,43.5
2023-08-03T12:52:26.432Z,43.4
2023-08-03T12:53:28.455Z,43.2
2023-08-03T12:54:30.652Z,43.1
2023-08-03T12:55:32.365Z,43.2
2023-08-03T12:56:34.086Z,43.3
2023-08-03T12:57:35.983Z,43.1
2023-08-03T12:58:37.685Z,43
2023-08-03T12:59:39.872Z,43
2023-08-03T13:00:43.174Z,42.9
2023-08-03T13:01:45.299Z,42.9
2023-08-03T13:02:47.669Z,42.9
2023-08-03T13:03:49.954Z,43
2023-08-03T13:04:52.140Z,43
2023-08-03T13:05:54.603Z,43
2023-08-03T13:06:57.347Z,42.9
2023-08-03T13:07:59.333Z,43
2023-08-03T13:09:01.623Z,42.8
2023-08-03T13:10:03.446Z,42.8
2023-08-03T13:11:05.361Z,42.9
2023-08-03T13:12:09.447Z,42.9
2023-08-03T13:13:11.216Z,43
2023-08-03T13:14:14.647Z,42.9
2023-08-03T13:15:16.655Z,42.8
2023-08-03T13:16:18.703Z,42.7
2023-08-03T13:17:20.892Z,42.4
2023-08-03T13:18:23.351Z,42.3
2023-08-03T13:19:25.971Z,42.5
2023-08-03T13:20:27.929Z,42.6
2023-08-03T13:21:30.109Z,42.7
2023-08-03T13:22:31.841Z,42.8
2023-08-03T13:23:33.586Z,42.7
2023-08-03T13:24:35.349Z,42.6
2023-08-03T13:25:37.111Z,42.5
2023-08-03T13:26:41.765Z,42.7
2023-08-03T13:27:43.519Z,42.8
2023-08-03T13:28:45.304Z,42.8
2023-08-03T13:29:47.469Z,42.4
2023-08-03T13:30:49.362Z,42.4
2023-08-03T13:31:51.396Z,42.3
2023-08-03T13:32:53.213Z,42.4
2023-08-03T13:33:55.154Z,42.3
2023-08-03T13:34:59.934Z,42.3
2023-08-03T13:36:02.029Z,42.5
2023-08-03T13:37:03.857Z,42.3
2023-08-03T13:39:12.779Z,42.6
2023-08-03T13:40:14.513Z,42.6
2023-08-03T13:41:16.553Z,42.6
2023-08-03T13:42:18.659Z,42.6
2023-08-03T13:43:20.457Z,42.5
2023-08-03T13:44:22.367Z,42.4
2023-08-03T13:45:24.438Z,42.4
2023-08-03T13:46:26.230Z,42.3
2023-08-03T13:47:28.485Z,42.1
2023-08-03T13:48:30.770Z,42.1
2023-08-03T13:49:32.763Z,42.2
2023-08-03T13:50:34.987Z,42.1
2023-08-03T13:51:37.053Z,42.1
2023-08-03T13:52:38.808Z,42.1
2023-08-03T13:53:40.871Z,42
2023-08-03T13:54:42.642Z,42
2023-08-03T13:55:44.415Z,42.1
2023-08-03T13:56:59.415Z,42
2023-08-03T13:58:09.469Z,42.1
2023-08-03T14:00:03.746Z,41.9
2023-08-03T14:02:17.502Z,41.8
2023-08-03T14:03:35.434Z,41.8
2023-08-03T14:04:38.722Z,41.8
2023-08-03T14:05:44.633Z,41.9
2023-08-03T14:07:51.237Z,41.8
2023-08-03T14:11:22.189Z,41.8
2023-08-03T14:12:24.568Z,41.9
2023-08-03T14:13:58.019Z,42
2023-08-03T14:15:37.688Z,42
2023-08-03T14:16:44.698Z,41.7
2023-08-03T14:17:56.688Z,41.3
2023-08-03T14:18:58.595Z,41.5
2023-08-03T14:21:00.168Z,41.6
2023-08-03T14:22:02.947Z,41.5
2023-08-03T14:23:06.037Z,41.5
2023-08-03T14:24:07.950Z,41.6
2023-08-03T14:26:23.577Z,41.5
2023-08-03T14:27:26.506Z,41.5
2023-08-03T14:29:42.088Z,41.9
2023-08-03T14:30:44.268Z,41.8
2023-08-03T14:31:47.523Z,41.8
2023-08-03T14:32:51.071Z,41.7